Columbus, Ohio
Traffic Map
Current Weather Conditions
Columbus, Ohio
Overcast
Overcast
72°
Feels Like: 72°
Wind Chill: 72° Ceiling: 13000
Heat Index: 72° Visibility: 8mi
Dew Point: 67° Wind: 0mph
Humidity: 84% Direction: ° ()
Pressure: 29.99in Gusts: 0mph
Raw Report DataKCMH 030651Z 00000KT 8SM OVC130 22/19 A2999 RMK AO2 SLP148 T02220194 $
Traffic Incident Summary
Active as of:
Severity:
Category:
InformationThere was an issue retrieving the traffic information for this location. Please try a different location or try again shortly.
Advertisements
Track Severe Weather on mobile